createdAt,value
2022-09-10T00:01:59.505Z,13.52
2022-09-10T00:04:27.769Z,13.53
2022-09-10T00:06:55.672Z,13.53
2022-09-10T00:09:23.014Z,13.51
2022-09-10T00:11:49.871Z,13.54
2022-09-10T00:14:21.391Z,13.52
2022-09-10T00:16:49.166Z,13.52
2022-09-10T00:19:16.705Z,13.51
2022-09-10T00:21:44.590Z,13.51
2022-09-10T00:24:12.022Z,13.52
2022-09-10T00:26:39.794Z,13.52
2022-09-10T00:29:11.683Z,13.51
2022-09-10T00:31:39.151Z,13.51
2022-09-10T00:34:07.036Z,13.51
2022-09-10T00:36:38.336Z,13.53
2022-09-10T00:39:08.250Z,13.51
2022-09-10T00:41:37.834Z,13.52
2022-09-10T00:44:26.308Z,13.50
2022-09-10T00:46:54.632Z,13.47
2022-09-10T00:49:33.710Z,13.47
2022-09-10T00:52:01.642Z,13.44
2022-09-10T00:54:31.387Z,13.41
2022-09-10T00:57:05.702Z,13.38
2022-09-10T00:59:33.501Z,13.33
2022-09-10T01:02:01.114Z,13.28
2022-09-10T01:04:28.882Z,13.25
2022-09-10T01:06:56.253Z,13.25
2022-09-10T01:09:24.523Z,13.24
2022-09-10T01:12:06.992Z,13.24
2022-09-10T01:14:48.391Z,13.18
2022-09-10T01:17:57.897Z,13.19
2022-09-10T01:20:48.995Z,13.18
2022-09-10T01:23:21.448Z,13.13
2022-09-10T01:25:54.119Z,13.17
2022-09-10T01:28:38.423Z,13.17
2022-09-10T01:31:14.865Z,13.15
2022-09-10T01:33:52.789Z,13.17
2022-09-10T01:36:25.622Z,13.17
2022-09-10T01:38:53.523Z,13.19
2022-09-10T01:41:23.936Z,13.21
2022-09-10T01:43:50.559Z,13.21
2022-09-10T01:46:34.962Z,13.21
2022-09-10T01:49:19.877Z,13.22
2022-09-10T01:52:15.275Z,13.21
2022-09-10T01:54:56.457Z,13.19
2022-09-10T01:57:38.733Z,13.17
2022-09-10T02:00:13.120Z,13.14
2022-09-10T02:03:07.781Z,13.14
2022-09-10T02:05:37.356Z,13.12
2022-09-10T02:08:11.314Z,13.13
2022-09-10T02:10:59.297Z,13.16
2022-09-10T02:13:28.653Z,13.13
2022-09-10T02:15:56.691Z,13.13
2022-09-10T02:18:25.071Z,13.12
2022-09-10T02:20:58.221Z,13.12
2022-09-10T02:23:31.671Z,13.11
2022-09-10T02:25:58.829Z,13.10
2022-09-10T02:28:25.651Z,13.05
2022-09-10T02:30:52.381Z,13.08
2022-09-10T02:33:19.483Z,13.07
2022-09-10T02:35:47.885Z,13.05
2022-09-10T02:38:14.537Z,13.03
2022-09-10T02:40:43.260Z,13.02
2022-09-10T02:43:09.988Z,12.96
2022-09-10T02:45:38.560Z,12.93
2022-09-10T02:48:05.321Z,12.92
2022-09-10T02:50:33.690Z,12.89
2022-09-10T02:53:01.169Z,12.91
2022-09-10T02:55:28.681Z,12.89
2022-09-10T02:57:55.496Z,12.86
2022-09-10T03:00:22.742Z,12.80
2022-09-10T03:02:49.582Z,12.80
2022-09-10T03:05:17.154Z,12.78
2022-09-10T03:07:43.908Z,12.79
2022-09-10T03:10:10.687Z,12.78
2022-09-10T03:12:37.618Z,12.77
2022-09-10T03:15:05.151Z,12.75
2022-09-10T03:17:32.325Z,12.77
2022-09-10T03:19:58.981Z,12.71
2022-09-10T03:22:25.630Z,12.72
2022-09-10T03:24:52.244Z,12.75
2022-09-10T03:27:20.627Z,12.73
2022-09-10T03:29:47.586Z,12.72
2022-09-10T03:32:14.247Z,12.71
2022-09-10T03:34:40.878Z,12.70
2022-09-10T03:37:07.485Z,12.70
2022-09-10T03:39:34.219Z,12.69
2022-09-10T03:42:00.944Z,12.70
2022-09-10T03:44:27.607Z,12.71
2022-09-10T03:46:54.305Z,12.72
2022-09-10T03:49:20.930Z,12.70
2022-09-10T03:51:48.313Z,12.67
2022-09-10T03:54:15.941Z,12.63
2022-09-10T03:56:42.627Z,12.60
2022-09-10T03:59:09.693Z,12.56
2022-09-10T04:01:37.102Z,12.52
2022-09-10T04:04:03.840Z,12.46
2022-09-10T04:06:32.750Z,12.40
2022-09-10T04:09:01.336Z,12.36
2022-09-10T04:11:28.805Z,12.34
2022-09-10T04:13:56.843Z,12.26
2022-09-10T04:16:23.584Z,12.21
2022-09-10T04:18:51.156Z,12.16
2022-09-10T04:21:17.937Z,12.11
2022-09-10T04:23:45.812Z,12.05
2022-09-10T04:26:15.183Z,11.87
2022-09-10T04:28:41.874Z,11.83
2022-09-10T04:31:08.694Z,11.73
2022-09-10T04:33:35.892Z,11.69
2022-09-10T04:36:03.605Z,11.69
2022-09-10T04:38:30.642Z,11.65
2022-09-10T04:40:58.283Z,11.66
2022-09-10T04:43:25.964Z,11.63
2022-09-10T04:45:54.509Z,11.60
2022-09-10T04:48:22.571Z,11.58
2022-09-10T04:51:14.732Z,11.57
2022-09-10T04:53:37.731Z,11.56
2022-09-10T04:56:04.468Z,11.54
2022-09-10T04:58:38.500Z,11.54
2022-09-10T05:01:05.912Z,11.51
2022-09-10T05:03:32.669Z,11.49
2022-09-10T05:05:59.292Z,11.48
2022-09-10T05:08:25.971Z,11.50
2022-09-10T05:10:53.447Z,11.50
2022-09-10T05:13:20.099Z,11.46
2022-09-10T05:15:46.767Z,11.45
2022-09-10T05:18:13.583Z,11.47
2022-09-10T05:20:40.197Z,11.44
2022-09-10T05:23:06.885Z,11.44
2022-09-10T05:25:34.621Z,11.40
2022-09-10T05:28:01.736Z,11.40
2022-09-10T05:30:32.947Z,11.40
2022-09-10T05:33:03.500Z,11.41
2022-09-10T05:35:30.447Z,11.39
2022-09-10T05:37:57.669Z,11.42
2022-09-10T05:40:25.541Z,11.43
2022-09-10T05:42:53.022Z,11.41
2022-09-10T05:45:20.406Z,11.60
2022-09-10T05:47:47.666Z,11.85
2022-09-10T05:50:14.682Z,12.29
2022-09-10T05:52:41.471Z,12.88
2022-09-10T05:55:09.180Z,13.41
2022-09-10T05:57:35.842Z,13.80
2022-09-10T06:00:05.777Z,13.98
2022-09-10T06:02:33.568Z,14.02
2022-09-10T06:05:00.807Z,13.82
2022-09-10T06:07:28.790Z,13.73
2022-09-10T06:09:55.623Z,14.08
2022-09-10T06:12:22.252Z,14.31
2022-09-10T06:14:49.726Z,14.49
2022-09-10T06:17:19.473Z,14.87
2022-09-10T06:19:46.718Z,14.97
2022-09-10T06:22:14.585Z,15.26
2022-09-10T06:24:41.241Z,15.42
2022-09-10T06:27:08.633Z,15.68
2022-09-10T06:29:36.835Z,15.99
2022-09-10T06:32:04.060Z,16.36
2022-09-10T06:34:31.489Z,16.58
2022-09-10T06:36:58.549Z,16.50
2022-09-10T06:39:25.243Z,16.19
2022-09-10T06:41:53.298Z,15.83
2022-09-10T06:44:22.378Z,15.44
2022-09-10T06:49:36.670Z,15.02
2022-09-10T06:52:03.616Z,14.82
2022-09-10T06:54:30.346Z,14.81
2022-09-10T06:56:58.012Z,15.09
2022-09-10T06:59:24.899Z,15.45
2022-09-10T07:01:51.693Z,15.78
2022-09-10T07:04:18.435Z,16.06
2022-09-10T07:06:46.082Z,16.33
2022-09-10T07:09:12.743Z,16.57
2022-09-10T07:11:41.521Z,16.77
2022-09-10T07:14:12.705Z,17.26
2022-09-10T07:16:44.399Z,17.48
2022-09-10T07:19:14.278Z,17.72
2022-09-10T07:21:41.159Z,18.03
2022-09-10T07:24:10.076Z,18.13
2022-09-10T07:26:36.745Z,17.99
2022-09-10T07:29:03.450Z,18.02
2022-09-10T07:31:33.973Z,18.25
2022-09-10T07:34:04.525Z,18.55
2022-09-10T07:36:31.883Z,18.79
2022-09-10T07:39:01.745Z,18.72
2022-09-10T07:41:30.076Z,18.63
2022-09-10T07:43:57.909Z,18.48
2022-09-10T07:46:25.757Z,18.45
2022-09-10T07:49:00.356Z,18.49
2022-09-10T07:51:29.915Z,18.73
2022-09-10T07:53:58.748Z,18.89
2022-09-10T07:56:26.329Z,19.29
2022-09-10T07:58:54.016Z,19.54
2022-09-10T08:01:21.095Z,19.67
2022-09-10T08:03:48.138Z,19.78
2022-09-10T08:06:15.857Z,20.08
2022-09-10T08:08:43.238Z,20.27
2022-09-10T08:11:13.924Z,20.24
2022-09-10T08:13:41.896Z,20.34
2022-09-10T08:16:10.699Z,20.31
2022-09-10T08:18:37.516Z,20.34
2022-09-10T08:21:05.920Z,20.62
2022-09-10T08:23:32.799Z,20.67
2022-09-10T08:25:59.639Z,20.67
2022-09-10T08:28:27.350Z,20.49
2022-09-10T08:31:00.649Z,20.57
2022-09-10T08:33:28.163Z,20.57
2022-09-10T08:35:59.805Z,20.55
2022-09-10T08:38:31.421Z,20.59
2022-09-10T08:41:00.469Z,20.70
2022-09-10T08:43:38.285Z,20.83
2022-09-10T08:46:16.807Z,20.92
2022-09-10T08:48:47.920Z,21.10
2022-09-10T08:51:23.827Z,20.77
2022-09-10T08:53:59.941Z,20.99
2022-09-10T08:56:27.911Z,20.99
2022-09-10T08:59:17.404Z,21.16
2022-09-10T09:02:44.836Z,21.48
2022-09-10T09:05:21.778Z,21.28
2022-09-10T09:07:49.535Z,21.36
2022-09-10T09:10:45.259Z,21.29
2022-09-10T09:13:24.736Z,21.23
2022-09-10T09:16:09.828Z,21.07
2022-09-10T09:18:36.768Z,21.40
2022-09-10T09:21:16.441Z,21.53
2022-09-10T09:24:13.553Z,21.61
2022-09-10T09:26:46.099Z,21.92
2022-09-10T09:29:43.686Z,21.94
2022-09-10T09:32:16.306Z,21.28
2022-09-10T09:34:56.790Z,21.59
2022-09-10T09:37:28.831Z,21.86
2022-09-10T09:40:15.147Z,21.75
2022-09-10T09:42:56.234Z,21.85
2022-09-10T09:45:37.444Z,21.76
2022-09-10T09:48:11.875Z,21.54
2022-09-10T09:50:42.000Z,21.33
2022-09-10T09:53:17.641Z,21.41
2022-09-10T09:55:48.736Z,21.53
2022-09-10T09:58:21.379Z,21.70
2022-09-10T10:00:52.367Z,21.83
2022-09-10T10:03:26.566Z,22.18
2022-09-10T10:06:08.257Z,22.04
2022-09-10T10:08:41.395Z,21.87
2022-09-10T10:11:09.241Z,21.90
2022-09-10T10:13:44.552Z,21.86
2022-09-10T10:16:23.435Z,21.87
2022-09-10T10:18:51.146Z,21.75
2022-09-10T10:21:22.411Z,21.51
2022-09-10T10:23:49.890Z,21.31
2022-09-10T10:26:31.406Z,21.39
2022-09-10T10:29:00.141Z,21.53
2022-09-10T10:31:38.786Z,21.40
2022-09-10T10:34:23.512Z,21.11
2022-09-10T10:37:14.061Z,21.02
2022-09-10T10:39:43.537Z,20.86
2022-09-10T10:42:21.291Z,20.96
2022-09-10T10:45:03.128Z,21.08
2022-09-10T10:47:55.449Z,21.28
2022-09-10T10:50:34.879Z,21.24
2022-09-10T10:53:23.004Z,21.20
2022-09-10T10:56:03.155Z,21.32
2022-09-10T10:59:00.953Z,21.39
2022-09-10T11:01:30.238Z,21.60
2022-09-10T11:04:22.894Z,21.86
2022-09-10T11:07:01.355Z,22.26
2022-09-10T11:09:33.703Z,22.34
2022-09-10T11:12:15.285Z,22.21
2022-09-10T11:14:51.697Z,22.25
2022-09-10T11:17:27.162Z,22.18
2022-09-10T11:20:29.111Z,21.97
2022-09-10T11:23:05.947Z,21.90
2022-09-10T11:26:12.317Z,21.88
2022-09-10T11:28:49.905Z,21.81
2022-09-10T11:31:31.751Z,21.83
2022-09-10T11:34:05.506Z,21.86
2022-09-10T11:36:49.547Z,21.84
2022-09-10T11:39:28.349Z,22.01
2022-09-10T11:41:59.052Z,21.91
2022-09-10T11:44:36.597Z,21.79
2022-09-10T11:47:39.346Z,21.50
2022-09-10T11:50:16.602Z,21.42
2022-09-10T11:52:43.317Z,21.40
2022-09-10T11:55:15.735Z,21.41
2022-09-10T11:57:58.630Z,21.33
2022-09-10T12:00:25.880Z,21.31
2022-09-10T12:03:10.801Z,21.27
2022-09-10T12:06:00.132Z,21.17
2022-09-10T12:09:01.116Z,20.88
2022-09-10T12:11:51.675Z,20.22
2022-09-10T12:14:20.011Z,19.08
2022-09-10T12:16:54.704Z,18.60
2022-09-10T12:19:29.613Z,18.18
2022-09-10T12:22:04.941Z,18.01
2022-09-10T12:24:35.120Z,18.04
2022-09-10T12:27:05.240Z,18.03
2022-09-10T12:29:35.100Z,18.01
2022-09-10T12:32:20.013Z,17.85
2022-09-10T12:34:51.199Z,17.75
2022-09-10T12:37:21.867Z,17.69
2022-09-10T12:39:49.709Z,17.61
2022-09-10T12:42:45.298Z,17.41
2022-09-10T12:45:12.136Z,17.39
2022-09-10T12:47:42.791Z,17.45
2022-09-10T12:50:46.035Z,17.66
2022-09-10T12:53:31.396Z,17.89
2022-09-10T12:56:15.779Z,18.00
2022-09-10T12:58:59.072Z,17.91
2022-09-10T13:01:47.939Z,17.92
2022-09-10T13:04:37.354Z,17.96
2022-09-10T13:07:25.344Z,18.06
2022-09-10T13:10:03.119Z,18.11
2022-09-10T13:12:32.889Z,18.14
2022-09-10T13:15:02.761Z,18.22
2022-09-10T13:17:37.087Z,18.18
2022-09-10T13:20:22.207Z,18.02
2022-09-10T13:23:02.515Z,17.97
2022-09-10T13:25:40.248Z,17.97
2022-09-10T13:28:34.785Z,18.01
2022-09-10T13:31:08.964Z,17.97
2022-09-10T13:34:18.081Z,17.96
2022-09-10T13:36:53.717Z,17.96
2022-09-10T13:40:08.088Z,17.84
2022-09-10T13:42:52.122Z,17.91
2022-09-10T13:45:53.691Z,17.89
2022-09-10T13:48:26.191Z,17.90
2022-09-10T13:51:24.239Z,17.80
2022-09-10T13:53:53.065Z,17.74
2022-09-10T13:56:28.876Z,17.72
2022-09-10T13:59:02.203Z,17.69
2022-09-10T14:01:48.764Z,17.63
2022-09-10T14:04:22.175Z,17.66
2022-09-10T14:06:49.262Z,17.66
2022-09-10T14:09:16.083Z,17.56
2022-09-10T14:11:44.200Z,17.37
2022-09-10T14:14:22.596Z,17.25
2022-09-10T14:17:10.295Z,17.14
2022-09-10T14:19:47.827Z,17.13
2022-09-10T14:22:22.335Z,17.16
2022-09-10T14:24:57.598Z,17.24
2022-09-10T14:27:33.245Z,17.25
2022-09-10T14:30:27.071Z,17.24
2022-09-10T14:32:53.709Z,17.16
2022-09-10T14:35:45.901Z,17.13
2022-09-10T14:38:34.714Z,16.89
2022-09-10T14:41:17.011Z,16.82
2022-09-10T14:43:43.741Z,16.83
2022-09-10T14:46:52.790Z,16.82
2022-09-10T14:49:26.800Z,16.82
2022-09-10T14:51:53.989Z,16.82
2022-09-10T14:54:20.854Z,16.82
2022-09-10T14:56:48.555Z,16.81
2022-09-10T14:59:16.897Z,16.70
2022-09-10T15:01:48.541Z,16.64
2022-09-10T15:04:17.598Z,16.66
2022-09-10T15:06:44.250Z,16.67
2022-09-10T15:09:14.941Z,16.66
2022-09-10T15:11:59.337Z,16.61
2022-09-10T15:14:26.292Z,16.65
2022-09-10T15:16:52.983Z,16.68
2022-09-10T15:19:20.430Z,16.69
2022-09-10T15:21:47.673Z,16.74
2022-09-10T15:24:17.145Z,16.71
2022-09-10T15:26:44.837Z,16.69
2022-09-10T15:29:11.826Z,16.65
2022-09-10T15:31:39.236Z,16.45
2022-09-10T15:34:07.353Z,16.35
2022-09-10T15:36:35.568Z,16.40
2022-09-10T15:39:02.275Z,16.45
2022-09-10T15:41:29.810Z,16.50
2022-09-10T15:43:57.419Z,16.51
2022-09-10T15:46:24.709Z,16.57
2022-09-10T15:48:52.822Z,16.53
2022-09-10T15:51:24.286Z,16.53
2022-09-10T15:53:53.028Z,16.50
2022-09-10T15:56:21.280Z,16.43
2022-09-10T15:58:52.362Z,16.42
2022-09-10T16:01:19.166Z,16.40
2022-09-10T16:03:52.079Z,16.35
2022-09-10T16:06:19.868Z,16.30
2022-09-10T16:09:02.073Z,16.27
2022-09-10T16:11:34.419Z,16.22
2022-09-10T16:14:04.698Z,16.17
2022-09-10T16:16:32.282Z,16.20
2022-09-10T16:18:59.162Z,16.24
2022-09-10T16:21:28.980Z,16.23
2022-09-10T16:23:57.877Z,16.17
2022-09-10T16:26:30.569Z,16.08
2022-09-10T16:28:59.441Z,16.03
2022-09-10T16:31:30.323Z,16.00
2022-09-10T16:33:58.905Z,15.95
2022-09-10T16:36:26.970Z,15.95
2022-09-10T16:38:55.621Z,15.93
2022-09-10T16:41:23.756Z,15.89
2022-09-10T16:43:50.985Z,15.88
2022-09-10T16:46:18.088Z,15.83
2022-09-10T16:48:45.414Z,15.81
2022-09-10T16:51:15.656Z,15.82
2022-09-10T16:53:44.942Z,15.82
2022-09-10T16:56:14.538Z,15.77
2022-09-10T16:58:42.061Z,15.72
2022-09-10T17:01:09.928Z,15.68
2022-09-10T17:03:41.225Z,15.64
2022-09-10T17:06:17.586Z,15.64
2022-09-10T17:08:45.308Z,15.58
2022-09-10T17:11:17.683Z,15.54
2022-09-10T17:13:44.491Z,15.55
2022-09-10T17:16:23.270Z,15.47
2022-09-10T17:19:02.889Z,15.39
2022-09-10T17:21:31.739Z,15.29
2022-09-10T17:23:59.332Z,15.24
2022-09-10T17:26:27.160Z,15.22
2022-09-10T17:28:55.974Z,15.16
2022-09-10T17:31:23.546Z,15.10
2022-09-10T17:33:50.862Z,15.07
2022-09-10T17:36:18.486Z,15.03
2022-09-10T17:38:46.141Z,15.00
2022-09-10T17:41:15.918Z,14.96
2022-09-10T17:43:43.837Z,14.94
2022-09-10T17:46:14.784Z,14.92
2022-09-10T17:48:45.755Z,14.87
2022-09-10T17:51:14.775Z,14.83
2022-09-10T17:53:42.290Z,14.77
2022-09-10T17:56:11.069Z,14.73
2022-09-10T17:58:38.064Z,14.71
2022-09-10T18:01:10.524Z,14.61
2022-09-10T18:03:37.392Z,14.58
2022-09-10T18:06:09.833Z,14.56
2022-09-10T18:08:39.169Z,14.49
2022-09-10T18:11:12.117Z,14.42
2022-09-10T18:13:38.863Z,14.39
2022-09-10T18:16:12.808Z,14.35
2022-09-10T18:18:39.552Z,14.31
2022-09-10T18:21:19.739Z,14.24
2022-09-10T18:24:00.472Z,14.19
2022-09-10T18:26:29.836Z,14.14
2022-09-10T18:29:02.086Z,14.12
2022-09-10T18:31:38.293Z,14.07
2022-09-10T18:34:07.032Z,14.00
2022-09-10T18:36:34.784Z,13.94
2022-09-10T18:39:12.939Z,13.88
2022-09-10T18:41:42.562Z,13.79
2022-09-10T18:44:18.685Z,13.71
2022-09-10T18:46:45.857Z,13.64
2022-09-10T18:49:16.784Z,13.62
2022-09-10T18:51:46.030Z,13.58
2022-09-10T18:54:15.074Z,13.54
2022-09-10T18:56:42.711Z,13.51
2022-09-10T18:59:15.382Z,13.45
2022-09-10T19:01:43.877Z,13.43
2022-09-10T19:04:13.802Z,13.41
2022-09-10T19:06:43.157Z,13.36
2022-09-10T19:09:11.960Z,13.32
2022-09-10T19:11:41.761Z,13.29
2022-09-10T19:14:31.999Z,13.27
2022-09-10T19:17:00.564Z,13.21
2022-09-10T19:19:29.769Z,13.19
2022-09-10T19:22:07.324Z,13.15
2022-09-10T19:27:21.118Z,13.07
2022-09-10T19:29:49.847Z,13.02
2022-09-10T19:32:17.260Z,12.95
2022-09-10T19:34:44.445Z,12.91
2022-09-10T19:37:11.343Z,12.91
2022-09-10T19:39:38.101Z,12.93
2022-09-10T19:42:05.780Z,12.94
2022-09-10T19:44:33.764Z,12.92
2022-09-10T19:47:00.990Z,12.90
2022-09-10T19:49:27.870Z,12.90
2022-09-10T19:51:54.993Z,12.91
2022-09-10T19:54:22.821Z,12.88
2022-09-10T19:56:49.924Z,12.86
2022-09-10T19:59:16.997Z,12.83
2022-09-10T20:01:46.230Z,12.83
2022-09-10T20:04:14.293Z,12.82
2022-09-10T20:06:46.129Z,12.76
2022-09-10T20:09:13.422Z,12.75
2022-09-10T20:11:40.150Z,12.74
2022-09-10T20:14:11.371Z,12.72
2022-09-10T20:16:42.965Z,12.70
2022-09-10T20:19:11.453Z,12.66
2022-09-10T20:21:38.260Z,12.62
2022-09-10T20:24:07.274Z,12.61
2022-09-10T20:26:38.308Z,12.53
2022-09-10T20:29:09.434Z,12.50
2022-09-10T20:31:37.324Z,12.45
2022-09-10T20:34:06.523Z,12.40
2022-09-10T20:36:35.066Z,12.33
2022-09-10T20:39:02.328Z,12.35
2022-09-10T20:41:30.243Z,12.37
2022-09-10T20:43:58.886Z,12.33
2022-09-10T20:46:27.624Z,12.29
2022-09-10T20:48:55.429Z,12.25
2022-09-10T20:51:22.071Z,12.23
2022-09-10T20:53:49.069Z,12.20
2022-09-10T20:56:19.615Z,12.18
2022-09-10T20:58:47.061Z,12.17
2022-09-10T21:01:19.912Z,12.10
2022-09-10T21:03:48.245Z,12.03
2022-09-10T21:06:18.424Z,11.99
2022-09-10T21:08:50.079Z,11.88
2022-09-10T21:11:19.436Z,11.87
2022-09-10T21:13:51.203Z,11.84
2022-09-10T21:16:20.144Z,11.80
2022-09-10T21:18:54.189Z,11.75
2022-09-10T21:21:25.629Z,11.73
2022-09-10T21:23:57.077Z,11.74
2022-09-10T21:26:28.988Z,11.73
2022-09-10T21:29:02.158Z,11.74
2022-09-10T21:31:30.325Z,11.74
2022-09-10T21:34:02.669Z,11.73
2022-09-10T21:36:31.374Z,11.67
2022-09-10T21:39:00.636Z,11.66
2022-09-10T21:41:31.903Z,11.65
2022-09-10T21:44:00.254Z,11.65
2022-09-10T21:46:27.621Z,11.60
2022-09-10T21:48:55.315Z,11.61
2022-09-10T21:51:23.100Z,11.58
2022-09-10T21:53:53.180Z,11.55
2022-09-10T21:56:19.929Z,11.52
2022-09-10T21:58:47.370Z,11.46
2022-09-10T22:01:20.110Z,11.45
2022-09-10T22:03:47.838Z,11.42
2022-09-10T22:06:18.590Z,11.40
2022-09-10T22:08:48.774Z,11.38
2022-09-10T22:11:19.263Z,11.37
2022-09-10T22:13:52.063Z,11.33
2022-09-10T22:16:20.928Z,11.28
2022-09-10T22:18:48.155Z,11.21
2022-09-10T22:21:15.749Z,11.20
2022-09-10T22:23:42.934Z,11.14
2022-09-10T22:26:12.848Z,11.14
2022-09-10T22:28:39.854Z,11.12
2022-09-10T22:31:12.210Z,11.11
2022-09-10T22:33:40.693Z,11.11
2022-09-10T22:36:18.953Z,11.09
2022-09-10T22:38:50.921Z,11.10
2022-09-10T22:41:19.073Z,11.05
2022-09-10T22:43:46.422Z,10.98
2022-09-10T22:46:13.614Z,10.95
2022-09-10T22:48:42.641Z,10.86
2022-09-10T22:51:12.057Z,10.89
2022-09-10T22:53:40.981Z,10.88
2022-09-10T22:56:08.181Z,10.84
2022-09-10T22:58:36.216Z,10.67
2022-09-10T23:01:10.317Z,10.67
2022-09-10T23:03:37.110Z,10.64
2022-09-10T23:06:15.072Z,10.66
2022-09-10T23:08:44.179Z,10.67
2022-09-10T23:11:12.404Z,10.71
2022-09-10T23:13:39.274Z,10.70
2022-09-10T23:16:11.483Z,10.68
2022-09-10T23:18:40.127Z,10.66
2022-09-10T23:21:07.867Z,10.69
2022-09-10T23:23:35.336Z,10.50
2022-09-10T23:26:08.894Z,10.36
2022-09-10T23:28:37.065Z,10.39
2022-09-10T23:31:20.887Z,10.42
2022-09-10T23:33:59.682Z,10.31
2022-09-10T23:36:31.775Z,10.35
2022-09-10T23:38:59.358Z,10.38
2022-09-10T23:41:26.386Z,10.39
2022-09-10T23:43:53.082Z,10.37
2022-09-10T23:46:20.081Z,10.41
2022-09-10T23:48:46.725Z,10.38
2022-09-10T23:51:15.716Z,10.15
2022-09-10T23:53:45.201Z,10.09
2022-09-10T23:56:16.946Z,10.10
2022-09-10T23:58:43.805Z,10.09
